createdAt,value
2018-09-28T00:02:00.343Z,15.93
2018-09-28T00:04:27.594Z,15.77
2018-09-28T00:06:54.866Z,16.60
2018-09-28T00:09:22.014Z,15.20
2018-09-28T00:11:49.317Z,15.50
2018-09-28T00:14:16.572Z,16.80
2018-09-28T00:16:43.774Z,15.20
2018-09-28T00:19:11.060Z,16.17
2018-09-28T00:21:43.223Z,14.33
2018-09-28T00:24:10.487Z,14.37
2018-09-28T00:26:37.791Z,14.00
2018-09-28T00:29:05.122Z,14.73
2018-09-28T00:31:32.288Z,15.10
2018-09-28T00:33:59.639Z,13.60
2018-09-28T00:36:26.898Z,14.83
2018-09-28T00:38:54.236Z,15.27
2018-09-28T00:41:21.541Z,13.00
2018-09-28T00:43:48.801Z,12.10
2018-09-28T00:46:16.061Z,15.63
2018-09-28T00:48:43.314Z,13.80
2018-09-28T00:51:10.581Z,13.20
2018-09-28T00:53:38.293Z,12.20
2018-09-28T00:56:06.121Z,13.20
2018-09-28T00:58:33.372Z,13.03
2018-09-28T01:01:00.569Z,13.23
2018-09-28T01:03:37.115Z,13.10
2018-09-28T01:06:04.518Z,13.97
2018-09-28T01:08:31.731Z,13.40
2018-09-28T01:10:58.878Z,13.40
2018-09-28T01:13:26.101Z,13.40
2018-09-28T01:15:53.331Z,12.13
2018-09-28T01:18:20.572Z,12.77
2018-09-28T01:20:47.796Z,13.70
2018-09-28T01:23:15.001Z,12.70
2018-09-28T01:25:42.235Z,12.17
2018-09-28T01:28:09.541Z,11.60
2018-09-28T01:30:36.797Z,11.77
2018-09-28T01:33:03.990Z,13.70
2018-09-28T01:35:31.223Z,12.03
2018-09-28T01:37:58.536Z,12.50
2018-09-28T01:40:25.784Z,11.13
2018-09-28T01:42:52.961Z,11.80
2018-09-28T01:45:20.108Z,12.53
2018-09-28T01:47:47.270Z,11.60
2018-09-28T01:50:14.421Z,11.47
2018-09-28T01:52:41.746Z,12.00
2018-09-28T01:55:08.953Z,11.47
2018-09-28T01:57:36.160Z,11.40
2018-09-28T02:00:03.368Z,11.10
2018-09-28T02:02:30.577Z,11.50
2018-09-28T02:04:57.716Z,10.20
2018-09-28T02:07:25.033Z,12.03
2018-09-28T02:09:52.213Z,10.73
2018-09-28T02:12:19.467Z,11.37
2018-09-28T02:14:47.039Z,10.00
2018-09-28T02:17:14.300Z,10.43
2018-09-28T02:19:41.981Z,10.20
2018-09-28T02:22:09.183Z,10.73
2018-09-28T02:24:36.447Z,12.27
2018-09-28T02:27:03.768Z,11.23
2018-09-28T02:29:30.940Z,11.00
2018-09-28T02:31:58.165Z,10.73
2018-09-28T02:34:25.690Z,11.33
2018-09-28T02:36:52.913Z,10.70
2018-09-28T02:39:20.125Z,11.57
2018-09-28T02:41:47.373Z,10.80
2018-09-28T02:44:14.785Z,10.80
2018-09-28T02:46:41.984Z,12.10
2018-09-28T02:49:09.231Z,12.00
2018-09-28T02:51:43.253Z,11.50
2018-09-28T02:54:10.504Z,10.30
2018-09-28T02:56:37.742Z,11.37
2018-09-28T02:59:05.117Z,11.00
2018-09-28T03:01:32.300Z,11.43
2018-09-28T03:03:59.435Z,9.83
2018-09-28T03:06:26.741Z,11.13
2018-09-28T03:08:54.930Z,11.37
2018-09-28T03:11:22.831Z,11.67
2018-09-28T03:13:50.080Z,10.87
2018-09-28T03:16:17.283Z,11.97
2018-09-28T03:18:44.531Z,11.10
2018-09-28T03:21:11.685Z,11.37
2018-09-28T03:23:38.917Z,11.20
2018-09-28T03:26:06.262Z,12.30
2018-09-28T03:28:33.460Z,11.80
2018-09-28T03:31:00.926Z,12.17
2018-09-28T03:33:28.511Z,11.80
2018-09-28T03:35:56.817Z,11.53
2018-09-28T03:38:24.144Z,12.27
2018-09-28T03:40:51.474Z,12.70
2018-09-28T03:43:18.965Z,14.00
2018-09-28T03:45:46.263Z,13.37
2018-09-28T03:48:13.705Z,12.63
2018-09-28T03:50:44.706Z,13.87
2018-09-28T03:53:12.104Z,14.03
2018-09-28T03:55:39.764Z,12.13
2018-09-28T03:58:07.062Z,13.40
2018-09-28T04:00:34.541Z,10.93
2018-09-28T04:03:02.054Z,12.80
2018-09-28T04:05:30.945Z,12.67
2018-09-28T04:07:58.386Z,12.10
2018-09-28T04:10:25.837Z,12.30
2018-09-28T04:12:53.199Z,11.47
2018-09-28T04:15:20.797Z,11.80
2018-09-28T04:17:48.223Z,11.80
2018-09-28T04:20:15.714Z,10.13
2018-09-28T04:22:43.303Z,11.37
2018-09-28T04:25:10.865Z,10.73
2018-09-28T04:27:38.215Z,13.07
2018-09-28T04:30:05.935Z,13.10
2018-09-28T04:32:33.304Z,13.53
2018-09-28T04:35:01.977Z,11.67
2018-09-28T04:37:29.821Z,13.43
2018-09-28T04:39:57.186Z,12.00
2018-09-28T04:42:24.679Z,12.30
2018-09-28T04:44:52.216Z,13.97
2018-09-28T04:47:19.853Z,13.00
2018-09-28T04:49:47.212Z,13.00
2018-09-28T04:52:14.573Z,13.00
2018-09-28T04:54:44.312Z,14.07
2018-09-28T04:57:11.887Z,14.10
2018-09-28T04:59:41.340Z,14.20
2018-09-28T05:02:08.784Z,14.83
2018-09-28T05:04:36.329Z,15.27
2018-09-28T05:07:03.708Z,15.40
2018-09-28T05:09:32.009Z,12.90
2018-09-28T05:11:59.459Z,13.30
2018-09-28T05:14:26.961Z,14.00
2018-09-28T05:16:54.521Z,13.40
2018-09-28T05:19:21.778Z,14.17
2018-09-28T05:21:50.152Z,12.77
2018-09-28T05:24:17.570Z,12.10
2018-09-28T05:26:45.243Z,10.77
2018-09-28T05:29:12.620Z,13.17
2018-09-28T05:31:40.099Z,13.90
2018-09-28T05:34:08.133Z,13.27
2018-09-28T05:36:35.814Z,12.40
2018-09-28T05:39:04.441Z,14.27
2018-09-28T05:41:32.992Z,16.87
2018-09-28T05:44:00.585Z,13.40
2018-09-28T05:46:28.224Z,12.30
2018-09-28T05:48:55.471Z,14.60
2018-09-28T05:51:22.898Z,14.23
2018-09-28T05:53:50.345Z,17.10
2018-09-28T05:56:17.904Z,14.43
2018-09-28T05:58:51.220Z,16.67
2018-09-28T06:01:24.492Z,14.80
2018-09-28T06:03:57.635Z,15.10
2018-09-28T06:06:25.451Z,15.03
2018-09-28T06:08:52.968Z,14.20
2018-09-28T06:11:20.356Z,18.03
2018-09-28T06:13:47.812Z,14.27
2018-09-28T06:16:16.583Z,13.53
2018-09-28T06:18:43.998Z,12.13
2018-09-28T06:21:11.456Z,12.83
2018-09-28T06:23:38.797Z,13.47
2018-09-28T06:26:06.395Z,16.40
2018-09-28T06:28:34.071Z,17.90
2018-09-28T06:31:01.598Z,16.80
2018-09-28T06:33:29.035Z,14.73
2018-09-28T06:35:56.372Z,15.07
2018-09-28T06:38:23.719Z,15.90
2018-09-28T06:40:51.275Z,18.37
2018-09-28T06:43:18.854Z,17.43
2018-09-28T06:45:46.398Z,13.67
2018-09-28T06:48:13.960Z,14.20
2018-09-28T06:50:41.247Z,15.23
2018-09-28T06:53:08.880Z,22.30
2018-09-28T06:55:36.356Z,14.50
2018-09-28T06:58:03.883Z,14.33
2018-09-28T07:00:31.181Z,13.57
2018-09-28T07:02:59.063Z,12.90
2018-09-28T07:05:26.433Z,12.87
2018-09-28T07:07:53.746Z,14.13
2018-09-28T07:10:21.126Z,14.30
2018-09-28T07:12:50.506Z,15.00
2018-09-28T07:15:18.134Z,14.90
2018-09-28T07:17:45.789Z,16.73
2018-09-28T07:20:13.120Z,15.60
2018-09-28T07:22:41.313Z,17.40
2018-09-28T07:25:10.926Z,18.23
2018-09-28T07:27:38.344Z,16.00
2018-09-28T07:30:05.855Z,17.00
2018-09-28T07:32:33.328Z,17.43
2018-09-28T07:35:00.931Z,16.70
2018-09-28T07:37:28.321Z,16.53
2018-09-28T07:39:55.712Z,16.97
2018-09-28T07:42:23.152Z,16.80
2018-09-28T07:44:50.543Z,16.90
2018-09-28T07:47:18.082Z,17.60
2018-09-28T07:49:45.986Z,17.77
2018-09-28T07:52:13.531Z,17.80
2018-09-28T07:54:41.990Z,17.30
2018-09-28T07:57:09.972Z,17.97
2018-09-28T07:59:37.534Z,18.73
2018-09-28T08:02:05.047Z,20.47
2018-09-28T08:04:32.636Z,20.23
2018-09-28T08:06:59.982Z,20.13
2018-09-28T08:09:29.826Z,19.03
2018-09-28T08:11:57.197Z,20.93
2018-09-28T08:14:24.444Z,21.43
2018-09-28T08:16:53.039Z,22.30
2018-09-28T08:19:20.446Z,20.37
2018-09-28T08:21:47.740Z,20.07
2018-09-28T08:24:16.999Z,21.40
2018-09-28T08:26:44.404Z,21.00
2018-09-28T08:29:11.745Z,18.87
2018-09-28T08:31:39.001Z,18.97
2018-09-28T08:34:06.314Z,19.83
2018-09-28T08:36:33.689Z,18.10
2018-09-28T08:39:00.847Z,20.13
2018-09-28T08:41:28.385Z,19.43
2018-09-28T08:43:55.791Z,20.67
2018-09-28T08:46:23.795Z,19.37
2018-09-28T08:48:51.243Z,19.70
2018-09-28T08:51:18.642Z,18.47
2018-09-28T08:53:45.901Z,17.90
2018-09-28T08:56:13.563Z,19.40
2018-09-28T08:58:40.898Z,20.23
2018-09-28T09:01:08.517Z,18.70
2018-09-28T09:03:35.945Z,20.07
2018-09-28T09:06:03.248Z,18.50
2018-09-28T09:08:31.514Z,18.93
2018-09-28T09:10:59.084Z,18.53
2018-09-28T09:13:26.442Z,18.97
2018-09-28T09:15:57.215Z,18.33
2018-09-28T09:18:25.068Z,19.00
2018-09-28T09:20:52.287Z,17.87
2018-09-28T09:23:19.640Z,20.00
2018-09-28T09:25:47.090Z,19.03
2018-09-28T09:28:14.668Z,18.37
2018-09-28T09:30:41.950Z,17.90
2018-09-28T09:33:09.336Z,18.80
2018-09-28T09:35:37.166Z,18.10
2018-09-28T09:38:04.509Z,16.03
2018-09-28T09:40:32.692Z,18.23
2018-09-28T09:43:00.066Z,18.33
2018-09-28T09:45:27.321Z,16.40
2018-09-28T09:47:54.621Z,16.37
2018-09-28T09:50:22.046Z,18.00
2018-09-28T09:52:49.470Z,16.70
2018-09-28T09:55:17.118Z,17.00
2018-09-28T09:57:44.608Z,15.73
2018-09-28T10:00:16.604Z,16.80
2018-09-28T10:02:55.020Z,18.73
2018-09-28T10:05:22.367Z,15.07
2018-09-28T10:07:49.686Z,15.60
2018-09-28T10:10:17.354Z,16.57
2018-09-28T10:12:44.855Z,14.40
2018-09-28T10:15:12.209Z,16.23
2018-09-28T10:17:41.021Z,15.13
2018-09-28T10:20:08.404Z,16.07
2018-09-28T10:22:35.619Z,15.73
2018-09-28T10:25:05.122Z,14.10
2018-09-28T10:27:38.562Z,15.77
2018-09-28T10:30:09.514Z,15.50
2018-09-28T10:32:40.556Z,14.80
2018-09-28T10:35:10.028Z,17.43
2018-09-28T10:37:39.308Z,17.73
2018-09-28T10:40:18.400Z,15.97
2018-09-28T10:42:45.863Z,16.10
2018-09-28T10:45:14.219Z,16.80
2018-09-28T10:47:45.808Z,16.30
2018-09-28T10:50:13.623Z,17.00
2018-09-28T10:52:40.969Z,17.77
2018-09-28T10:55:08.669Z,20.53
2018-09-28T10:57:36.027Z,19.10
2018-09-28T11:00:03.615Z,19.17
2018-09-28T11:02:30.905Z,19.43
2018-09-28T11:04:59.375Z,17.87
2018-09-28T11:07:30.899Z,15.63
2018-09-28T11:09:58.543Z,16.37
2018-09-28T11:12:27.743Z,15.67
2018-09-28T11:15:01.202Z,14.47
2018-09-28T11:17:28.449Z,15.00
2018-09-28T11:19:55.733Z,14.70
2018-09-28T11:22:30.183Z,15.00
2018-09-28T11:24:57.604Z,15.57
2018-09-28T11:27:24.844Z,14.47
2018-09-28T11:29:51.951Z,15.43
2018-09-28T11:32:19.203Z,16.17
2018-09-28T11:34:46.400Z,15.83
2018-09-28T11:37:13.717Z,15.57
2018-09-28T11:39:40.926Z,16.37
2018-09-28T11:42:08.325Z,15.10
2018-09-28T11:44:35.674Z,16.27
2018-09-28T11:47:02.913Z,14.60
2018-09-28T11:49:30.268Z,14.73
2018-09-28T11:51:57.545Z,15.10
2018-09-28T11:54:24.928Z,14.60
2018-09-28T11:56:52.454Z,12.13
2018-09-28T11:59:19.703Z,12.90
2018-09-28T12:01:47.149Z,12.20
2018-09-28T12:04:16.379Z,13.27
2018-09-28T12:06:43.741Z,12.37
2018-09-28T12:09:12.119Z,12.00
2018-09-28T12:11:40.259Z,11.83
2018-09-28T12:14:07.622Z,10.47
2018-09-28T12:16:34.960Z,10.00
2018-09-28T12:19:02.380Z,9.30
2018-09-28T12:21:29.884Z,9.90
2018-09-28T12:23:57.912Z,10.00
2018-09-28T12:26:25.202Z,10.73
2018-09-28T12:28:52.529Z,10.70
2018-09-28T12:31:20.063Z,10.63
2018-09-28T12:33:47.372Z,8.57
2018-09-28T12:36:14.508Z,9.87
2018-09-28T12:38:41.709Z,10.30
2018-09-28T12:41:09.026Z,10.43
2018-09-28T12:43:36.412Z,8.63
2018-09-28T12:46:03.948Z,10.87
2018-09-28T12:48:31.835Z,11.20
2018-09-28T12:50:59.100Z,11.30
2018-09-28T12:53:26.461Z,11.33
2018-09-28T12:55:55.911Z,13.00
2018-09-28T12:58:23.261Z,12.40
2018-09-28T13:00:50.661Z,11.60
2018-09-28T13:03:17.986Z,10.03
2018-09-28T13:05:45.427Z,9.73
2018-09-28T13:08:12.915Z,10.17
2018-09-28T13:10:40.248Z,10.10
2018-09-28T13:13:07.561Z,10.20
2018-09-28T13:15:35.042Z,10.00
2018-09-28T13:18:04.450Z,10.63
2018-09-28T13:20:31.950Z,12.63
2018-09-28T13:25:37.309Z,15.70
2018-09-28T13:30:38.729Z,18.20
2018-09-28T13:33:06.009Z,19.27
2018-09-28T13:35:33.812Z,18.60
2018-09-28T13:38:02.372Z,19.73
2018-09-28T13:40:29.708Z,20.90
2018-09-28T13:42:57.185Z,20.93
2018-09-28T13:45:24.833Z,21.97
2018-09-28T13:47:52.256Z,23.70
2018-09-28T13:50:19.635Z,21.17
2018-09-28T13:52:46.967Z,20.93
2018-09-28T13:55:14.374Z,21.83
2018-09-28T13:57:41.924Z,20.03
2018-09-28T14:00:09.450Z,17.00
2018-09-28T14:02:36.777Z,16.40
2018-09-28T14:05:04.074Z,15.47
2018-09-28T14:07:31.387Z,14.03
2018-09-28T14:10:01.887Z,13.10
2018-09-28T14:12:29.280Z,11.83
2018-09-28T14:14:56.726Z,11.97
2018-09-28T14:17:24.389Z,12.07
2018-09-28T14:19:51.529Z,12.30
2018-09-28T14:22:18.851Z,11.33
2018-09-28T14:24:46.255Z,10.87
2018-09-28T14:27:13.436Z,10.70
2018-09-28T14:29:40.745Z,10.40
2018-09-28T14:32:08.124Z,9.07
2018-09-28T14:34:35.422Z,9.97
2018-09-28T14:37:02.801Z,9.93
2018-09-28T14:39:36.528Z,9.70
2018-09-28T14:42:15.343Z,9.00
2018-09-28T14:44:43.315Z,8.80
2018-09-28T14:47:10.501Z,8.87
2018-09-28T14:49:37.895Z,8.37
2018-09-28T14:52:06.199Z,8.80
2018-09-28T14:54:33.613Z,8.67
2018-09-28T14:57:01.563Z,8.10
2018-09-28T14:59:28.840Z,8.37
2018-09-28T15:01:56.269Z,8.80
2018-09-28T15:04:23.642Z,8.00
2018-09-28T15:06:51.137Z,7.30
2018-09-28T15:09:18.300Z,7.17
2018-09-28T15:11:45.670Z,7.13
2018-09-28T15:14:13.071Z,6.73
2018-09-28T15:16:40.398Z,6.70
2018-09-28T15:19:08.726Z,6.30
2018-09-28T15:21:36.665Z,6.30
2018-09-28T15:24:04.247Z,6.70
2018-09-28T15:26:31.787Z,7.30
2018-09-28T15:28:59.361Z,6.37
2018-09-28T15:31:26.845Z,7.87
2018-09-28T15:33:54.666Z,7.00
2018-09-28T15:36:22.000Z,7.83
2018-09-28T15:38:49.484Z,8.13
2018-09-28T15:41:16.912Z,6.93
2018-09-28T15:43:44.766Z,6.03
2018-09-28T15:46:12.049Z,6.50
2018-09-28T15:48:39.349Z,7.03
2018-09-28T15:51:06.644Z,7.37
2018-09-28T15:53:33.890Z,6.77
2018-09-28T15:56:01.409Z,7.57
2018-09-28T15:58:28.823Z,6.57
2018-09-28T16:00:56.439Z,6.53
2018-09-28T16:03:23.796Z,6.00
2018-09-28T16:05:51.160Z,5.53
2018-09-28T16:08:18.580Z,6.20
2018-09-28T16:10:45.955Z,5.70
2018-09-28T16:13:13.420Z,6.37
2018-09-28T16:15:40.759Z,5.90
2018-09-28T16:18:08.136Z,4.93
2018-09-28T16:20:35.445Z,5.47
2018-09-28T16:23:03.410Z,5.20
2018-09-28T16:25:31.736Z,5.53
2018-09-28T16:27:59.002Z,5.33
2018-09-28T16:30:27.362Z,4.90
2018-09-28T16:32:54.734Z,4.60
2018-09-28T16:35:22.107Z,4.80
2018-09-28T16:38:19.612Z,4.90
2018-09-28T16:41:11.859Z,4.67
2018-09-28T16:44:02.815Z,3.70
2018-09-28T16:46:55.106Z,4.70
2018-09-28T16:49:52.626Z,3.80
2018-09-28T16:52:43.276Z,4.33
2018-09-28T16:55:34.989Z,4.00
2018-09-28T16:58:27.227Z,3.67
2018-09-28T17:01:18.256Z,4.37
2018-09-28T17:04:16.009Z,3.27
2018-09-28T17:07:01.318Z,3.67
2018-09-28T17:09:30.880Z,3.50
2018-09-28T17:11:58.287Z,4.40
2018-09-28T17:14:26.030Z,3.43
2018-09-28T17:16:53.361Z,3.30
2018-09-28T17:19:20.691Z,3.90
2018-09-28T17:21:48.002Z,4.00
2018-09-28T17:24:15.282Z,4.23
2018-09-28T17:26:43.537Z,3.13
2018-09-28T17:29:11.027Z,4.20
2018-09-28T17:31:38.415Z,3.97
2018-09-28T17:34:10.105Z,3.87
2018-09-28T17:36:37.518Z,4.87
2018-09-28T17:39:07.726Z,4.00
2018-09-28T17:41:35.483Z,3.80
2018-09-28T17:44:03.089Z,3.63
2018-09-28T17:46:30.393Z,4.17
2018-09-28T17:49:05.361Z,3.80
2018-09-28T17:51:32.727Z,4.10
2018-09-28T17:54:00.187Z,4.40
2018-09-28T17:56:27.601Z,3.83
2018-09-28T17:58:54.845Z,4.37
2018-09-28T18:01:22.211Z,3.97
2018-09-28T18:03:49.439Z,4.00
2018-09-28T18:06:16.705Z,4.20
2018-09-28T18:08:44.329Z,3.90
2018-09-28T18:11:11.698Z,4.63
2018-09-28T18:13:39.081Z,3.60
2018-09-28T18:16:06.465Z,4.70
2018-09-28T18:18:33.789Z,4.77
2018-09-28T18:21:02.281Z,4.47
2018-09-28T18:23:31.645Z,3.87
2018-09-28T18:25:59.755Z,4.53
2018-09-28T18:28:31.689Z,4.87
2018-09-28T18:30:59.629Z,4.30
2018-09-28T18:33:27.292Z,3.93
2018-09-28T18:35:54.489Z,3.70
2018-09-28T18:38:21.817Z,4.00
2018-09-28T18:40:50.224Z,3.63
2018-09-28T18:43:18.163Z,4.33
2018-09-28T18:45:46.955Z,4.10
2018-09-28T18:48:15.673Z,4.70
2018-09-28T18:50:44.924Z,3.80
2018-09-28T18:53:13.573Z,4.20
2018-09-28T18:55:44.204Z,4.30
2018-09-28T18:58:12.895Z,6.10
2018-09-28T19:00:41.405Z,4.93
2018-09-28T19:03:10.717Z,5.57
2018-09-28T19:05:40.739Z,5.07
2018-09-28T19:08:10.199Z,4.70
2018-09-28T19:10:38.686Z,4.60
2018-09-28T19:13:06.745Z,4.00
2018-09-28T19:15:34.016Z,4.17
2018-09-28T19:18:01.450Z,6.63
2018-09-28T19:20:28.782Z,4.37
2018-09-28T19:22:56.417Z,4.70
2018-09-28T19:25:23.905Z,5.27
2018-09-28T19:27:51.456Z,5.73
2018-09-28T19:30:23.723Z,5.43
2018-09-28T19:32:51.086Z,4.80
2018-09-28T19:35:19.033Z,5.33
2018-09-28T19:37:46.624Z,5.50
2018-09-28T19:40:15.911Z,5.53
2018-09-28T19:42:46.346Z,4.63
2018-09-28T19:45:14.925Z,6.93
2018-09-28T19:47:42.605Z,6.83
2018-09-28T19:50:10.844Z,7.20
2018-09-28T19:52:39.060Z,8.60
2018-09-28T19:55:07.443Z,6.20
2018-09-28T19:57:35.614Z,5.47
2018-09-28T20:00:04.673Z,5.23
2018-09-28T20:02:34.144Z,5.73
2018-09-28T20:05:03.015Z,6.50
2018-09-28T20:07:30.826Z,6.10
2018-09-28T20:09:58.797Z,6.03
2018-09-28T20:12:26.400Z,5.47
2018-09-28T20:14:54.209Z,6.27
2018-09-28T20:17:21.566Z,5.73
2018-09-28T20:19:49.170Z,5.43
2018-09-28T20:22:16.731Z,6.07
2018-09-28T20:24:50.486Z,5.60
2018-09-28T20:27:18.205Z,5.30
2018-09-28T20:29:48.431Z,5.63
2018-09-28T20:32:16.054Z,5.00
2018-09-28T20:34:44.741Z,6.40
2018-09-28T20:37:12.389Z,6.23
2018-09-28T20:39:39.907Z,5.50
2018-09-28T20:42:08.334Z,5.97
2018-09-28T20:44:37.505Z,6.90
2018-09-28T20:47:05.067Z,6.30
2018-09-28T20:49:33.049Z,6.20
2018-09-28T20:52:00.900Z,5.87
2018-09-28T20:54:29.243Z,5.90
2018-09-28T20:56:57.033Z,8.07
2018-09-28T20:59:24.620Z,6.50
2018-09-28T21:01:53.176Z,6.40
2018-09-28T21:04:21.177Z,6.10
2018-09-28T21:06:50.202Z,5.90
2018-09-28T21:09:18.587Z,6.27
2018-09-28T21:11:46.766Z,6.57
2018-09-28T21:14:14.968Z,11.27
2018-09-28T21:16:42.679Z,6.80
2018-09-28T21:19:10.969Z,6.20
2018-09-28T21:21:40.320Z,6.37
2018-09-28T21:24:08.244Z,4.93
2018-09-28T21:26:36.722Z,4.90
2018-09-28T21:29:04.362Z,5.27
2018-09-28T21:31:31.920Z,5.33
2018-09-28T21:34:06.829Z,5.07
2018-09-28T21:36:34.162Z,4.80
2018-09-28T21:39:01.512Z,4.80
2018-09-28T21:41:28.940Z,5.90
2018-09-28T21:43:56.555Z,5.77
2018-09-28T21:46:23.866Z,5.90
2018-09-28T21:48:51.153Z,4.90
2018-09-28T21:51:18.545Z,7.00
2018-09-28T21:53:47.922Z,5.60
2018-09-28T21:56:15.558Z,5.27
2018-09-28T21:58:43.001Z,6.00
2018-09-28T22:01:16.162Z,5.20
2018-09-28T22:03:43.426Z,4.53
2018-09-28T22:06:10.810Z,4.47
2018-09-28T22:08:38.655Z,5.90
2018-09-28T22:11:06.176Z,4.30
2018-09-28T22:13:33.706Z,4.50
2018-09-28T22:16:01.129Z,4.70
2018-09-28T22:18:29.296Z,5.00
2018-09-28T22:20:56.971Z,4.30
2018-09-28T22:23:24.243Z,5.20
2018-09-28T22:25:51.664Z,4.70
2018-09-28T22:28:19.092Z,5.80
2018-09-28T22:30:46.339Z,4.80
2018-09-28T22:33:13.545Z,5.17
2018-09-28T22:35:40.739Z,5.47
2018-09-28T22:38:07.949Z,5.13
2018-09-28T22:40:35.246Z,4.73
2018-09-28T22:43:02.487Z,4.73
2018-09-28T22:45:29.663Z,4.03
2018-09-28T22:47:57.858Z,7.30
2018-09-28T22:50:26.179Z,6.63
2018-09-28T22:52:53.355Z,5.70
2018-09-28T22:55:20.694Z,4.97
2018-09-28T22:57:47.893Z,4.80
2018-09-28T23:00:15.098Z,5.10
2018-09-28T23:02:42.351Z,4.60
2018-09-28T23:05:09.597Z,4.77
2018-09-28T23:07:36.810Z,4.50
2018-09-28T23:10:04.110Z,4.20
2018-09-28T23:12:31.389Z,5.63
2018-09-28T23:14:58.775Z,4.60
2018-09-28T23:17:26.125Z,4.07
2018-09-28T23:19:53.285Z,3.90
2018-09-28T23:22:21.699Z,4.50
2018-09-28T23:24:48.896Z,3.93
2018-09-28T23:27:16.067Z,3.93
2018-09-28T23:29:43.221Z,4.50
2018-09-28T23:32:10.604Z,4.27
2018-09-28T23:34:38.491Z,4.33
2018-09-28T23:37:05.725Z,3.67
2018-09-28T23:39:32.939Z,4.97
2018-09-28T23:42:00.222Z,4.23
2018-09-28T23:44:27.529Z,5.37
2018-09-28T23:46:55.813Z,4.17
2018-09-28T23:49:23.069Z,4.63
2018-09-28T23:51:50.358Z,4.20
2018-09-28T23:54:17.484Z,3.80
2018-09-28T23:56:44.717Z,3.50
2018-09-28T23:59:12.046Z,3.30
